createdAt,value
2023-04-26T00:00:27.443Z,960.68
2023-04-26T00:00:57.314Z,960.68
2023-04-26T00:01:28.410Z,960.78
2023-04-26T00:01:59.271Z,960.78
2023-04-26T00:02:30.230Z,960.68
2023-04-26T00:03:01.539Z,960.68
2023-04-26T00:03:32.863Z,960.78
2023-04-26T00:04:03.412Z,960.78
2023-04-26T00:04:34.649Z,960.99
2023-04-26T00:05:06.322Z,960.99
2023-04-26T00:05:36.521Z,960.89
2023-04-26T00:06:07.697Z,960.89
2023-04-26T00:06:38.261Z,960.68
2023-04-26T00:07:09.221Z,960.68
2023-04-26T00:07:40.494Z,960.78
2023-04-26T00:08:11.327Z,960.78
2023-04-26T00:08:42.293Z,961.19
2023-04-26T00:09:13.368Z,961.19
2023-04-26T00:09:44.625Z,960.78
2023-04-26T00:10:15.650Z,960.78
2023-04-26T00:10:46.176Z,960.78
2023-04-26T00:11:17.202Z,960.78
2023-04-26T00:11:48.209Z,960.78
2023-04-26T00:12:19.225Z,960.78
2023-04-26T00:12:50.199Z,960.89
2023-04-26T00:13:21.224Z,960.89
2023-04-26T00:13:52.237Z,960.89
2023-04-26T00:14:23.219Z,960.89
2023-04-26T00:14:54.233Z,961.19
2023-04-26T00:15:26.129Z,961.19
2023-04-26T00:15:56.459Z,960.68
2023-04-26T00:16:27.480Z,960.89
2023-04-26T00:16:59.706Z,960.89
2023-04-26T00:17:29.485Z,960.78
2023-04-26T00:18:01.341Z,960.78
2023-04-26T00:18:31.465Z,961.09
2023-04-26T00:19:02.607Z,961.09
2023-04-26T00:19:33.203Z,960.99
2023-04-26T00:20:04.458Z,960.99
2023-04-26T00:20:35.285Z,960.89
2023-04-26T00:21:06.216Z,960.89
2023-04-26T00:21:37.314Z,960.68
2023-04-26T00:22:08.340Z,960.68
2023-04-26T00:22:39.382Z,960.99
2023-04-26T00:23:10.477Z,960.99
2023-04-26T00:23:41.467Z,960.99
2023-04-26T00:24:12.424Z,960.99
2023-04-26T00:24:43.183Z,960.99
2023-04-26T00:25:14.697Z,960.99
2023-04-26T00:25:45.318Z,960.89
2023-04-26T00:26:16.337Z,960.89
2023-04-26T00:26:47.384Z,960.99
2023-04-26T00:27:18.519Z,960.99
2023-04-26T00:27:49.601Z,960.78
2023-04-26T00:28:20.237Z,960.78
2023-04-26T00:28:51.855Z,960.68
2023-04-26T00:29:22.255Z,960.68
2023-04-26T00:29:53.214Z,960.89
2023-04-26T00:30:25.090Z,960.89
2023-04-26T00:30:55.253Z,960.68
2023-04-26T00:31:26.404Z,960.89
2023-04-26T00:31:57.369Z,960.89
2023-04-26T00:32:28.377Z,960.89
2023-04-26T00:32:59.607Z,960.89
2023-04-26T00:33:30.260Z,960.78
2023-04-26T00:34:01.493Z,960.78
2023-04-26T00:34:32.261Z,960.99
2023-04-26T00:35:03.775Z,960.99
2023-04-26T00:35:34.354Z,960.99
2023-04-26T00:36:05.703Z,960.99
2023-04-26T00:36:36.384Z,960.78
2023-04-26T00:37:07.562Z,960.78
2023-04-26T00:37:38.590Z,960.68
2023-04-26T00:38:09.733Z,960.68
2023-04-26T00:38:40.454Z,960.99
2023-04-26T00:39:11.283Z,960.99
2023-04-26T00:39:42.202Z,960.99
2023-04-26T00:40:13.605Z,960.99
2023-04-26T00:40:44.298Z,960.99
2023-04-26T00:41:15.881Z,960.99
2023-04-26T00:41:46.395Z,960.99
2023-04-26T00:42:17.418Z,960.99
2023-04-26T00:42:48.383Z,960.78
2023-04-26T00:43:19.384Z,960.78
2023-04-26T00:43:50.292Z,960.89
2023-04-26T00:44:21.537Z,960.89
2023-04-26T00:44:52.814Z,960.99
2023-04-26T00:45:24.442Z,960.99
2023-04-26T00:45:54.654Z,960.89
2023-04-26T00:46:25.796Z,960.89
2023-04-26T00:46:56.727Z,960.99
2023-04-26T00:47:27.904Z,960.99
2023-04-26T00:47:58.386Z,960.99
2023-04-26T00:48:30.548Z,960.89
2023-04-26T00:49:00.595Z,960.89
2023-04-26T00:49:32.569Z,960.99
2023-04-26T00:50:02.901Z,960.99
2023-04-26T00:50:34.094Z,960.78
2023-04-26T00:51:04.435Z,960.78
2023-04-26T00:51:35.720Z,960.78
2023-04-26T00:52:06.540Z,960.78
2023-04-26T00:52:37.490Z,960.78
2023-04-26T00:53:08.746Z,960.78
2023-04-26T00:53:39.743Z,960.89
2023-04-26T00:54:11.184Z,960.89
2023-04-26T00:54:41.624Z,960.99
2023-04-26T00:55:13.300Z,960.99
2023-04-26T00:55:43.417Z,960.89
2023-04-26T00:56:14.772Z,960.89
2023-04-26T00:56:45.379Z,960.99
2023-04-26T00:57:16.637Z,960.99
2023-04-26T00:57:47.821Z,961.09
2023-04-26T00:58:18.328Z,961.09
2023-04-26T00:58:50.116Z,960.78
2023-04-26T00:59:20.324Z,960.78
2023-04-26T00:59:51.932Z,960.68
2023-04-26T01:00:23.522Z,960.68
2023-04-26T01:00:53.857Z,960.99
2023-04-26T01:01:24.739Z,960.99
2023-04-26T01:01:55.601Z,960.68
2023-04-26T01:02:26.646Z,960.89
2023-04-26T01:02:57.522Z,960.89
2023-04-26T01:03:28.853Z,960.89
2023-04-26T01:03:59.752Z,960.89
2023-04-26T01:04:30.756Z,960.99
2023-04-26T01:05:01.934Z,960.99
2023-04-26T01:05:32.660Z,960.89
2023-04-26T01:06:03.476Z,960.89
2023-04-26T01:06:34.607Z,961.19
2023-04-26T01:07:05.592Z,961.19
2023-04-26T01:07:36.743Z,960.89
2023-04-26T01:08:07.437Z,960.89
2023-04-26T01:08:38.779Z,960.99
2023-04-26T01:09:09.654Z,960.99
2023-04-26T01:09:40.693Z,960.68
2023-04-26T01:10:12.032Z,960.68
2023-04-26T01:10:42.692Z,960.99
2023-04-26T01:11:13.731Z,960.99
2023-04-26T01:11:44.771Z,960.99
2023-04-26T01:12:15.803Z,960.99
2023-04-26T01:12:46.433Z,960.99
2023-04-26T01:13:17.643Z,960.99
2023-04-26T01:13:48.754Z,960.99
2023-04-26T01:14:19.727Z,960.99
2023-04-26T01:14:50.401Z,960.78
2023-04-26T01:15:22.682Z,960.78
2023-04-26T01:15:52.503Z,961.09
2023-04-26T01:16:23.858Z,961.09
2023-04-26T01:16:54.826Z,960.89
2023-04-26T01:17:25.604Z,960.89
2023-04-26T01:17:56.518Z,961.09
2023-04-26T01:18:27.561Z,960.78
2023-04-26T01:18:58.896Z,960.78
2023-04-26T01:19:29.674Z,960.99
2023-04-26T01:20:02.721Z,960.99
2023-04-26T01:20:31.774Z,960.62
2023-04-26T01:21:03.661Z,960.62
2023-04-26T01:21:33.415Z,960.89
2023-04-26T01:22:04.528Z,960.89
2023-04-26T01:22:35.958Z,960.78
2023-04-26T01:23:07.134Z,960.78
2023-04-26T01:23:37.724Z,960.68
2023-04-26T01:24:08.450Z,960.68
2023-04-26T01:24:39.451Z,960.78
2023-04-26T01:25:11.003Z,960.78
2023-04-26T01:25:41.496Z,960.89
2023-04-26T01:26:12.697Z,960.89
2023-04-26T01:26:43.619Z,960.89
2023-04-26T01:27:14.882Z,960.89
2023-04-26T01:27:45.736Z,960.78
2023-04-26T01:28:16.882Z,960.78
2023-04-26T01:28:47.851Z,960.99
2023-04-26T01:29:18.895Z,960.99
2023-04-26T01:29:49.576Z,960.89
2023-04-26T01:30:21.179Z,960.89
2023-04-26T01:30:51.711Z,961.09
2023-04-26T01:31:22.814Z,961.09
2023-04-26T01:31:53.853Z,961.09
2023-04-26T01:32:24.760Z,961.09
2023-04-26T01:32:55.965Z,960.99
2023-04-26T01:33:26.534Z,961.09
2023-04-26T01:33:57.862Z,961.09
2023-04-26T01:34:28.890Z,961.09
2023-04-26T01:34:59.519Z,961.09
2023-04-26T01:35:31.014Z,960.78
2023-04-26T01:36:01.649Z,960.78
2023-04-26T01:36:32.498Z,961.09
2023-04-26T01:37:03.697Z,961.09
2023-04-26T01:37:35.368Z,960.78
2023-04-26T01:38:05.508Z,960.78
2023-04-26T01:38:36.490Z,961.09
2023-04-26T01:39:07.858Z,961.09
2023-04-26T01:39:38.678Z,960.89
2023-04-26T01:40:10.442Z,960.89
2023-04-26T01:40:40.485Z,960.99
2023-04-26T01:41:11.520Z,960.99
2023-04-26T01:41:42.689Z,961.09
2023-04-26T01:42:13.649Z,961.09
2023-04-26T01:42:44.624Z,960.99
2023-04-26T01:43:15.608Z,960.99
2023-04-26T01:43:46.590Z,960.89
2023-04-26T01:44:17.731Z,960.89
2023-04-26T01:44:48.916Z,960.89
2023-04-26T01:45:20.416Z,960.89
2023-04-26T01:45:50.832Z,960.89
2023-04-26T01:46:21.597Z,960.89
2023-04-26T01:46:52.742Z,960.89
2023-04-26T01:47:23.537Z,960.89
2023-04-26T01:47:54.904Z,961.09
2023-04-26T01:48:25.731Z,961.09
2023-04-26T01:48:56.810Z,960.78
2023-04-26T01:49:27.762Z,960.89
2023-04-26T01:49:58.489Z,960.89
2023-04-26T01:50:30.024Z,960.99
2023-04-26T01:51:00.601Z,960.99
2023-04-26T01:51:32.635Z,961.09
2023-04-26T01:52:02.597Z,961.09
2023-04-26T01:52:33.974Z,960.99
2023-04-26T01:53:04.692Z,960.99
2023-04-26T01:53:36.089Z,960.89
2023-04-26T01:54:06.589Z,960.89
2023-04-26T01:54:37.859Z,960.99
2023-04-26T01:55:09.405Z,960.99
2023-04-26T01:55:39.537Z,960.78
2023-04-26T01:56:11.009Z,960.78
2023-04-26T01:56:41.900Z,960.78
2023-04-26T01:57:13.631Z,960.78
2023-04-26T01:57:43.563Z,960.78
2023-04-26T01:58:14.473Z,960.78
2023-04-26T01:58:45.578Z,960.68
2023-04-26T01:59:16.638Z,960.68
2023-04-26T01:59:47.611Z,961.09
2023-04-26T02:00:19.818Z,961.09
2023-04-26T02:00:49.834Z,960.99
2023-04-26T02:01:20.849Z,960.99
2023-04-26T02:01:51.933Z,960.99
2023-04-26T02:02:22.552Z,960.99
2023-04-26T02:02:53.747Z,960.89
2023-04-26T02:03:24.675Z,960.89
2023-04-26T02:03:55.652Z,960.89
2023-04-26T02:04:26.718Z,960.78
2023-04-26T02:04:58.041Z,960.78
2023-04-26T02:05:29.116Z,960.78
2023-04-26T02:05:59.851Z,960.78
2023-04-26T02:06:30.879Z,960.99
2023-04-26T02:07:01.789Z,960.99
2023-04-26T02:07:32.862Z,960.99
2023-04-26T02:08:03.872Z,960.99
2023-04-26T02:08:34.917Z,960.78
2023-04-26T02:09:05.677Z,960.78
2023-04-26T02:09:36.799Z,960.99
2023-04-26T02:10:08.141Z,960.99
2023-04-26T02:10:38.795Z,960.99
2023-04-26T02:11:09.968Z,960.99
2023-04-26T02:11:40.930Z,960.99
2023-04-26T02:12:11.955Z,960.99
2023-04-26T02:12:42.651Z,960.99
2023-04-26T02:13:13.890Z,960.99
2023-04-26T02:13:44.607Z,960.89
2023-04-26T02:14:15.862Z,960.89
2023-04-26T02:14:46.580Z,960.89
2023-04-26T02:15:18.335Z,960.89
2023-04-26T02:15:48.751Z,960.99
2023-04-26T02:16:20.021Z,960.99
2023-04-26T02:16:50.682Z,960.89
2023-04-26T02:17:21.689Z,960.89
2023-04-26T02:17:52.870Z,960.78
2023-04-26T02:18:24.132Z,960.78
2023-04-26T02:18:55.218Z,960.78
2023-04-26T02:19:25.615Z,960.78
2023-04-26T02:19:56.810Z,960.89
2023-04-26T02:20:28.193Z,960.68
2023-04-26T02:20:59.004Z,960.68
2023-04-26T02:21:29.579Z,960.78
2023-04-26T02:22:01.072Z,960.78
2023-04-26T02:22:32.000Z,960.89
2023-04-26T02:23:04.346Z,960.89
2023-04-26T02:23:33.841Z,960.89
2023-04-26T02:24:06.164Z,960.89
2023-04-26T02:24:35.729Z,960.89
2023-04-26T02:25:10.176Z,960.89
2023-04-26T02:25:38.180Z,960.68
2023-04-26T02:26:08.741Z,960.68
2023-04-26T02:26:39.699Z,960.89
2023-04-26T02:27:10.876Z,960.89
2023-04-26T02:27:41.882Z,960.78
2023-04-26T02:28:12.787Z,960.78
2023-04-26T02:28:44.093Z,960.89
2023-04-26T02:29:14.610Z,960.89
2023-04-26T02:29:45.671Z,960.99
2023-04-26T02:30:17.697Z,960.99
2023-04-26T02:30:47.829Z,960.68
2023-04-26T02:31:20.055Z,960.68
2023-04-26T02:31:50.064Z,960.89
2023-04-26T02:32:21.027Z,960.89
2023-04-26T02:32:51.893Z,960.68
2023-04-26T02:33:23.141Z,960.68
2023-04-26T02:33:54.032Z,960.78
2023-04-26T02:34:25.056Z,960.78
2023-04-26T02:34:56.337Z,960.68
2023-04-26T02:35:26.994Z,960.99
2023-04-26T02:35:58.325Z,960.99
2023-04-26T02:36:29.052Z,960.78
2023-04-26T02:37:00.107Z,960.78
2023-04-26T02:37:30.693Z,960.89
2023-04-26T02:38:01.735Z,960.89
2023-04-26T02:38:32.907Z,960.78
2023-04-26T02:39:03.671Z,960.78
2023-04-26T02:39:34.719Z,960.78
2023-04-26T02:40:05.908Z,960.78
2023-04-26T02:40:36.901Z,960.89
2023-04-26T02:41:07.715Z,960.89
2023-04-26T02:41:38.682Z,960.62
2023-04-26T02:42:10.178Z,960.62
2023-04-26T02:42:44.043Z,960.68
2023-04-26T02:43:11.935Z,960.68
2023-04-26T02:43:42.621Z,960.78
2023-04-26T02:44:13.856Z,960.78
2023-04-26T02:44:44.841Z,960.78
2023-04-26T02:45:16.504Z,960.78
2023-04-26T02:45:47.012Z,960.78
2023-04-26T02:46:17.883Z,960.78
2023-04-26T02:46:48.797Z,960.68
2023-04-26T02:47:20.139Z,960.68
2023-04-26T02:47:51.132Z,960.99
2023-04-26T02:48:22.123Z,960.99
2023-04-26T02:48:53.713Z,960.62
2023-04-26T02:49:24.193Z,960.62
2023-04-26T02:49:55.131Z,960.78
2023-04-26T02:50:26.183Z,960.78
2023-04-26T02:50:56.730Z,960.89
2023-04-26T02:51:28.196Z,960.78
2023-04-26T02:51:59.081Z,960.78
2023-04-26T02:52:30.130Z,960.99
2023-04-26T02:53:00.919Z,960.99
2023-04-26T02:53:32.104Z,960.78
2023-04-26T02:54:03.012Z,960.78
2023-04-26T02:54:35.082Z,960.89
2023-04-26T02:55:05.397Z,960.89
2023-04-26T02:55:37.450Z,960.78
2023-04-26T02:56:07.303Z,960.78
2023-04-26T02:56:38.131Z,960.89
2023-04-26T02:57:09.145Z,960.89
2023-04-26T02:57:40.152Z,960.78
2023-04-26T02:58:11.414Z,960.78
2023-04-26T02:58:42.254Z,960.89
2023-04-26T02:59:13.049Z,960.89
2023-04-26T02:59:44.055Z,960.68
2023-04-26T03:00:15.965Z,960.68
2023-04-26T03:00:46.142Z,960.68
2023-04-26T03:01:16.830Z,960.68
2023-04-26T03:01:48.359Z,960.78
2023-04-26T03:02:18.912Z,960.78
2023-04-26T03:02:49.891Z,960.62
2023-04-26T03:03:21.157Z,960.62
2023-04-26T03:03:51.933Z,960.89
2023-04-26T03:04:23.098Z,960.89
2023-04-26T03:04:54.290Z,960.78
2023-04-26T03:05:25.406Z,960.78
2023-04-26T03:05:56.379Z,960.78
2023-04-26T03:06:27.231Z,960.89
2023-04-26T03:06:58.070Z,960.89
2023-04-26T03:07:29.270Z,960.68
2023-04-26T03:08:00.189Z,960.68
2023-04-26T03:08:31.041Z,960.78
2023-04-26T03:09:02.224Z,960.78
2023-04-26T03:09:33.239Z,960.78
2023-04-26T03:10:04.695Z,960.78
2023-04-26T03:10:35.165Z,960.68
2023-04-26T03:11:06.034Z,960.68
2023-04-26T03:11:36.801Z,960.78
2023-04-26T03:12:08.167Z,960.78
2023-04-26T03:12:38.770Z,960.89
2023-04-26T03:13:09.938Z,960.89
2023-04-26T03:13:41.189Z,960.89
2023-04-26T03:14:11.977Z,960.89
2023-04-26T03:14:43.125Z,961.09
2023-04-26T03:15:15.396Z,961.09
2023-04-26T03:15:45.553Z,960.78
2023-04-26T03:16:15.937Z,960.78
2023-04-26T03:16:47.159Z,960.62
2023-04-26T03:17:17.966Z,960.62
2023-04-26T03:17:49.533Z,960.99
2023-04-26T03:18:19.967Z,960.99
2023-04-26T03:18:51.260Z,960.78
2023-04-26T03:19:21.813Z,960.78
2023-04-26T03:19:53.282Z,960.89
2023-04-26T03:20:24.273Z,960.89
2023-04-26T03:20:54.886Z,960.89
2023-04-26T03:21:26.053Z,960.89
2023-04-26T03:21:56.842Z,960.68
2023-04-26T03:22:27.810Z,960.99
2023-04-26T03:22:59.213Z,960.99
2023-04-26T03:23:29.801Z,960.78
2023-04-26T03:24:00.940Z,960.78
2023-04-26T03:24:31.852Z,960.89
2023-04-26T03:25:03.455Z,960.89
2023-04-26T03:25:34.014Z,960.78
2023-04-26T03:26:05.930Z,960.78
2023-04-26T03:26:36.097Z,960.89
2023-04-26T03:27:08.495Z,960.89
2023-04-26T03:27:38.519Z,960.78
2023-04-26T03:28:09.393Z,960.78
2023-04-26T03:28:40.405Z,960.89
2023-04-26T03:29:11.097Z,960.89
2023-04-26T03:29:43.968Z,960.89
2023-04-26T03:30:13.546Z,960.89
2023-04-26T03:30:44.023Z,961.09
2023-04-26T03:31:15.063Z,961.09
2023-04-26T03:31:46.128Z,960.99
2023-04-26T03:32:17.321Z,960.99
2023-04-26T03:32:48.355Z,961.09
2023-04-26T03:33:18.906Z,961.09
2023-04-26T03:33:49.901Z,961.09
2023-04-26T03:34:20.856Z,961.09
2023-04-26T03:34:52.017Z,960.99
2023-04-26T03:35:23.708Z,960.99
2023-04-26T03:35:53.912Z,961.09
2023-04-26T03:36:24.856Z,961.09
2023-04-26T03:36:56.445Z,960.99
2023-04-26T03:37:27.084Z,960.89
2023-04-26T03:37:58.940Z,960.89
2023-04-26T03:38:29.023Z,961.09
2023-04-26T03:39:00.141Z,961.09
2023-04-26T03:39:31.283Z,961.19
2023-04-26T03:40:02.180Z,961.19
2023-04-26T03:40:33.498Z,960.99
2023-04-26T03:41:03.885Z,960.99
2023-04-26T03:41:35.129Z,961.09
2023-04-26T03:42:06.156Z,961.09
2023-04-26T03:42:37.360Z,961.09
2023-04-26T03:43:08.305Z,961.09
2023-04-26T03:43:39.245Z,960.78
2023-04-26T03:44:10.346Z,960.78
2023-04-26T03:44:41.341Z,960.99
2023-04-26T03:45:13.057Z,960.99
2023-04-26T03:45:43.506Z,961.19
2023-04-26T03:46:14.579Z,961.19
2023-04-26T03:46:45.437Z,960.89
2023-04-26T03:47:16.254Z,960.89
2023-04-26T03:47:47.297Z,960.99
2023-04-26T03:48:18.245Z,960.99
2023-04-26T03:48:49.114Z,961.09
2023-04-26T03:49:20.285Z,961.09
2023-04-26T03:49:51.043Z,960.99
2023-04-26T03:50:22.386Z,960.99
2023-04-26T03:50:53.040Z,961.09
2023-04-26T03:51:23.963Z,961.09
2023-04-26T03:51:54.990Z,960.89
2023-04-26T03:52:26.226Z,960.89
2023-04-26T03:52:57.142Z,961.09
2023-04-26T03:53:28.253Z,960.89
2023-04-26T03:53:59.157Z,960.89
2023-04-26T03:54:30.179Z,961.09
2023-04-26T03:55:01.356Z,961.09
2023-04-26T03:55:31.870Z,960.99
2023-04-26T03:56:03.142Z,960.99
2023-04-26T03:56:34.160Z,960.99
2023-04-26T03:57:05.038Z,960.99
2023-04-26T03:57:36.985Z,960.89
2023-04-26T03:58:06.989Z,960.89
2023-04-26T03:58:39.622Z,961.29
2023-04-26T03:59:09.014Z,961.29
2023-04-26T03:59:40.297Z,960.99
2023-04-26T04:00:12.487Z,960.99
2023-04-26T04:00:42.323Z,961.09
2023-04-26T04:01:13.161Z,961.09
2023-04-26T04:01:44.825Z,961.19
2023-04-26T04:02:15.781Z,961.19
2023-04-26T04:02:46.418Z,960.99
2023-04-26T04:03:17.526Z,960.99
2023-04-26T04:03:48.609Z,961.19
2023-04-26T04:04:19.272Z,961.19
2023-04-26T04:04:50.308Z,961.19
2023-04-26T04:05:21.874Z,961.19
2023-04-26T04:05:52.112Z,960.99
2023-04-26T04:06:23.070Z,960.99
2023-04-26T04:06:54.317Z,960.89
2023-04-26T04:07:25.133Z,960.89
2023-04-26T04:07:55.963Z,960.99
2023-04-26T04:08:27.321Z,961.19
2023-04-26T04:08:58.284Z,961.19
2023-04-26T04:09:29.245Z,960.99
2023-04-26T04:10:01.781Z,960.99
2023-04-26T04:10:31.096Z,961.09
2023-04-26T04:11:02.226Z,961.09
2023-04-26T04:11:33.278Z,960.99
2023-04-26T04:12:04.072Z,960.99
2023-04-26T04:12:35.170Z,960.89
2023-04-26T04:13:06.215Z,960.89
2023-04-26T04:13:37.276Z,961.09
2023-04-26T04:14:08.377Z,961.09
2023-04-26T04:14:39.581Z,961.09
2023-04-26T04:15:10.858Z,961.09
2023-04-26T04:15:41.548Z,960.89
2023-04-26T04:16:12.492Z,960.89
2023-04-26T04:16:43.451Z,960.78
2023-04-26T04:17:14.417Z,960.78
2023-04-26T04:17:45.217Z,960.89
2023-04-26T04:18:16.273Z,960.89
2023-04-26T04:18:47.097Z,960.99
2023-04-26T04:19:18.149Z,960.99
2023-04-26T04:19:49.161Z,960.99
2023-04-26T04:20:20.801Z,960.99
2023-04-26T04:20:51.604Z,960.99
2023-04-26T04:21:22.117Z,960.99
2023-04-26T04:21:53.462Z,960.89
2023-04-26T04:22:24.408Z,960.89
2023-04-26T04:22:55.116Z,960.99
2023-04-26T04:23:26.134Z,960.99
2023-04-26T04:23:57.254Z,961.09
2023-04-26T04:24:28.538Z,961.19
2023-04-26T04:24:59.304Z,961.19
2023-04-26T04:25:30.453Z,960.89
2023-04-26T04:26:01.440Z,960.89
2023-04-26T04:26:32.834Z,961.19
2023-04-26T04:27:03.145Z,961.19
2023-04-26T04:27:34.757Z,961.19
2023-04-26T04:28:05.455Z,961.19
2023-04-26T04:28:36.397Z,960.99
2023-04-26T04:29:10.278Z,960.99
2023-04-26T04:29:38.417Z,961.09
2023-04-26T04:30:11.591Z,961.09
2023-04-26T04:30:40.478Z,961.09
2023-04-26T04:31:11.586Z,961.09
2023-04-26T04:31:42.742Z,960.99
2023-04-26T04:32:13.149Z,960.99
2023-04-26T04:32:44.159Z,961.19
2023-04-26T04:33:15.080Z,961.19
2023-04-26T04:33:46.137Z,961.19
2023-04-26T04:34:17.146Z,961.19
2023-04-26T04:34:49.568Z,961.09
2023-04-26T04:35:19.891Z,961.09
2023-04-26T04:35:50.386Z,961.09
2023-04-26T04:36:21.239Z,961.09
2023-04-26T04:36:52.566Z,961.09
2023-04-26T04:37:23.407Z,961.09
2023-04-26T04:37:54.534Z,961.19
2023-04-26T04:38:25.516Z,961.19
2023-04-26T04:38:56.530Z,961.09
2023-04-26T04:39:30.117Z,961.19
2023-04-26T04:39:58.211Z,961.19
2023-04-26T04:40:29.418Z,961.29
2023-04-26T04:41:00.297Z,961.29
2023-04-26T04:41:31.697Z,961.09
2023-04-26T04:42:02.906Z,961.09
2023-04-26T04:42:33.174Z,961.09
2023-04-26T04:43:04.370Z,961.09
2023-04-26T04:43:35.206Z,961.09
2023-04-26T04:44:06.192Z,961.09
2023-04-26T04:44:37.282Z,961.29
2023-04-26T04:45:08.926Z,961.29
2023-04-26T04:45:39.425Z,961.09
2023-04-26T04:46:12.562Z,961.09
2023-04-26T04:46:41.423Z,961.19
2023-04-26T04:47:12.576Z,961.19
2023-04-26T04:47:43.554Z,961.39
2023-04-26T04:48:14.242Z,961.39
2023-04-26T04:48:45.529Z,961.19
2023-04-26T04:49:16.809Z,961.19
2023-04-26T04:49:47.513Z,961.09
2023-04-26T04:50:18.999Z,961.09
2023-04-26T04:50:49.395Z,961.09
2023-04-26T04:51:20.118Z,961.09
2023-04-26T04:51:51.158Z,961.29
2023-04-26T04:52:23.161Z,961.29
2023-04-26T04:52:53.138Z,961.29
2023-04-26T04:53:24.715Z,961.29
2023-04-26T04:53:55.230Z,960.99
2023-04-26T04:54:26.289Z,960.99
2023-04-26T04:54:57.658Z,961.09
2023-04-26T04:55:29.199Z,961.09
2023-04-26T04:55:59.442Z,961.09
2023-04-26T04:56:30.442Z,961.19
2023-04-26T04:57:01.203Z,961.19
2023-04-26T04:57:32.362Z,961.19
2023-04-26T04:58:03.237Z,961.19
2023-04-26T04:58:34.650Z,960.99
2023-04-26T04:59:05.368Z,960.99
2023-04-26T04:59:36.376Z,961.29
2023-04-26T05:00:08.480Z,961.29
2023-04-26T05:00:40.122Z,961.19
2023-04-26T05:01:09.612Z,961.19
2023-04-26T05:01:40.689Z,961.29
2023-04-26T05:02:11.295Z,961.29
2023-04-26T05:02:42.842Z,961.29
2023-04-26T05:03:13.518Z,961.29
2023-04-26T05:03:44.732Z,961.09
2023-04-26T05:04:15.703Z,961.09
2023-04-26T05:04:46.841Z,960.99
2023-04-26T05:05:18.366Z,960.99
2023-04-26T05:05:48.540Z,961.19
2023-04-26T05:06:19.289Z,961.19
2023-04-26T05:06:50.294Z,960.99
2023-04-26T05:07:22.539Z,960.99
2023-04-26T05:07:52.284Z,960.99
2023-04-26T05:08:23.413Z,960.99
2023-04-26T05:08:54.541Z,960.89
2023-04-26T05:09:25.617Z,960.89
2023-04-26T05:09:56.561Z,961.39
2023-04-26T05:10:28.003Z,961.09
2023-04-26T05:10:58.593Z,961.09
2023-04-26T05:11:29.593Z,961.19
2023-04-26T05:12:00.397Z,961.19
2023-04-26T05:12:31.450Z,961.29
2023-04-26T05:13:02.394Z,961.29
2023-04-26T05:13:33.212Z,961.19
2023-04-26T05:14:04.697Z,961.19
2023-04-26T05:14:36.027Z,961.09
2023-04-26T05:15:07.056Z,961.09
2023-04-26T05:15:37.763Z,961.50
2023-04-26T05:16:08.583Z,961.50
2023-04-26T05:16:39.335Z,961.19
2023-04-26T05:17:10.641Z,961.19
2023-04-26T05:17:41.280Z,961.29
2023-04-26T05:18:12.744Z,961.29
2023-04-26T05:18:43.343Z,961.39
2023-04-26T05:19:14.465Z,961.39
2023-04-26T05:19:45.273Z,961.19
2023-04-26T05:20:16.869Z,961.19
2023-04-26T05:20:47.799Z,961.29
2023-04-26T05:21:18.483Z,961.29
2023-04-26T05:21:49.300Z,961.19
2023-04-26T05:22:20.723Z,961.19
2023-04-26T05:22:51.354Z,961.29
2023-04-26T05:23:22.344Z,961.29
2023-04-26T05:23:53.831Z,961.39
2023-04-26T05:24:24.398Z,961.39
2023-04-26T05:24:55.534Z,961.39
2023-04-26T05:25:26.766Z,961.39
2023-04-26T05:25:57.985Z,961.29
2023-04-26T05:26:28.572Z,961.39
2023-04-26T05:26:59.621Z,961.39
2023-04-26T05:27:30.699Z,961.60
2023-04-26T05:28:01.738Z,961.60
2023-04-26T05:28:32.269Z,961.60
2023-04-26T05:29:03.704Z,961.60
2023-04-26T05:29:34.298Z,961.39
2023-04-26T05:30:05.982Z,961.39
2023-04-26T05:30:36.625Z,961.39
2023-04-26T05:31:09.934Z,961.39
2023-04-26T05:31:38.385Z,961.29
2023-04-26T05:32:11.790Z,961.29
2023-04-26T05:32:40.397Z,961.60
2023-04-26T05:33:13.601Z,961.60
2023-04-26T05:33:42.997Z,961.39
2023-04-26T05:34:14.364Z,961.39
2023-04-26T05:34:44.655Z,961.50
2023-04-26T05:35:15.567Z,961.50
2023-04-26T05:35:46.975Z,961.39
2023-04-26T05:36:17.962Z,961.39
2023-04-26T05:36:48.745Z,961.50
2023-04-26T05:37:19.657Z,961.50
2023-04-26T05:37:50.803Z,961.50
2023-04-26T05:38:21.701Z,961.50
2023-04-26T05:38:52.300Z,961.50
2023-04-26T05:39:23.377Z,961.50
2023-04-26T05:39:54.839Z,961.50
2023-04-26T05:40:26.147Z,961.50
2023-04-26T05:40:56.724Z,961.60
2023-04-26T05:41:27.544Z,961.60
2023-04-26T05:41:58.289Z,961.60
2023-04-26T05:42:29.576Z,961.29
2023-04-26T05:43:00.700Z,961.29
2023-04-26T05:43:31.646Z,961.39
2023-04-26T05:44:02.670Z,961.39
2023-04-26T05:44:33.739Z,961.29
2023-04-26T05:45:05.496Z,961.29
2023-04-26T05:45:35.766Z,961.50
2023-04-26T05:46:06.648Z,961.50
2023-04-26T05:46:37.804Z,961.60
2023-04-26T05:47:08.818Z,961.60
2023-04-26T05:47:39.844Z,961.70
2023-04-26T05:48:10.390Z,961.70
2023-04-26T05:48:41.384Z,961.60
2023-04-26T05:49:12.292Z,961.60
2023-04-26T05:49:43.413Z,961.70
2023-04-26T05:50:15.214Z,961.70
2023-04-26T05:50:46.403Z,961.50
2023-04-26T05:51:16.776Z,961.50
2023-04-26T05:51:47.788Z,961.80
2023-04-26T05:52:18.803Z,961.80
2023-04-26T05:52:49.497Z,961.70
2023-04-26T05:53:20.340Z,961.70
2023-04-26T05:53:51.967Z,961.70
2023-04-26T05:54:22.450Z,961.70
2023-04-26T05:54:53.515Z,961.50
2023-04-26T05:55:25.322Z,961.50
2023-04-26T05:55:55.845Z,961.60
2023-04-26T05:56:26.777Z,961.60
2023-04-26T05:56:59.108Z,961.80
2023-04-26T05:57:28.924Z,961.70
2023-04-26T05:57:59.578Z,961.70
2023-04-26T05:58:30.754Z,961.80
2023-04-26T05:59:01.405Z,961.80
2023-04-26T05:59:32.452Z,961.80
2023-04-26T06:00:03.969Z,961.80
2023-04-26T06:00:35.360Z,961.60
2023-04-26T06:01:05.673Z,961.60
2023-04-26T06:01:36.369Z,961.90
2023-04-26T06:02:07.475Z,961.90
2023-04-26T06:02:38.827Z,961.80
2023-04-26T06:03:09.714Z,961.80
2023-04-26T06:03:42.876Z,961.70
2023-04-26T06:04:11.997Z,961.70
2023-04-26T06:04:44.700Z,961.80
2023-04-26T06:05:14.339Z,961.80
2023-04-26T06:05:45.960Z,961.80
2023-04-26T06:06:16.323Z,961.80
2023-04-26T06:06:46.716Z,961.70
2023-04-26T06:07:17.875Z,961.70
2023-04-26T06:07:48.443Z,961.70
2023-04-26T06:08:19.375Z,961.70
2023-04-26T06:08:50.472Z,961.60
2023-04-26T06:09:21.404Z,961.60
2023-04-26T06:09:52.934Z,961.70
2023-04-26T06:10:23.991Z,961.70
2023-04-26T06:10:55.042Z,961.90
2023-04-26T06:11:25.650Z,961.90
2023-04-26T06:11:56.645Z,961.70
2023-04-26T06:12:27.846Z,961.70
2023-04-26T06:12:58.662Z,961.70
2023-04-26T06:13:29.854Z,961.80
2023-04-26T06:14:00.795Z,961.80
2023-04-26T06:14:31.451Z,961.80
2023-04-26T06:15:03.045Z,961.80
2023-04-26T06:15:33.573Z,961.50
2023-04-26T06:16:04.972Z,961.50
2023-04-26T06:16:35.735Z,961.90
2023-04-26T06:17:07.221Z,961.90
2023-04-26T06:17:38.056Z,961.70
2023-04-26T06:18:08.604Z,961.70
2023-04-26T06:18:39.608Z,961.70
2023-04-26T06:19:10.657Z,961.70
2023-04-26T06:19:41.642Z,961.80
2023-04-26T06:20:13.449Z,961.80
2023-04-26T06:20:43.640Z,961.80
2023-04-26T06:21:14.811Z,961.80
2023-04-26T06:21:45.801Z,961.80
2023-04-26T06:22:17.071Z,961.80
2023-04-26T06:22:47.796Z,961.70
2023-04-26T06:23:20.316Z,961.70
2023-04-26T06:23:49.586Z,961.90
2023-04-26T06:24:20.631Z,961.90
2023-04-26T06:24:51.595Z,961.90
2023-04-26T06:25:23.299Z,961.90
2023-04-26T06:25:53.818Z,961.80
2023-04-26T06:26:24.864Z,961.80
2023-04-26T06:26:55.938Z,961.60